Time;durP1;ratioP1;P1;durP2;ratioP2;P2;SDS_P1;SDS_P2;PMS_P1;PMS_P2;Temp;Humidity;BMP_temperature;BMP_pressure;BME280_temperature;BME280_humidity;BME280_pressure;Samples;Min_cycle;Max_cycle;Signal;HPM_P1;HPM_P2
2021/03/17 00:00:30;;;;;;;5.30;1.53;;;5.00;95.80;;;;;;5020334;28;20049;-72
2021/03/17 00:02:57;;;;;;;5.03;1.37;;;5.00;95.70;;;;;;5037467;28;20041;-72
2021/03/17 00:05:34;;;;;;;2.70;1.23;;;4.90;95.70;;;;;;5028410;28;20110;-72
2021/03/17 00:08:00;;;;;;;4.17;1.23;;;4.90;95.60;;;;;;5024028;28;20044;-72
2021/03/17 00:10:29;;;;;;;3.93;1.20;;;4.90;95.70;;;;;;5027281;28;20040;-73
2021/03/17 00:12:56;;;;;;;6.13;1.50;;;4.90;95.70;;;;;;5041832;28;20698;-72
2021/03/17 00:15:23;;;;;;;3.17;1.27;;;4.80;95.80;;;;;;5034240;28;20060;-73
2021/03/17 00:17:52;;;;;;;3.50;0.97;;;4.90;95.70;;;;;;5044487;28;20029;-73
2021/03/17 00:20:19;;;;;;;3.50;0.90;;;4.90;95.70;;;;;;5027885;28;20041;-72
2021/03/17 00:22:45;;;;;;;3.27;1.13;;;4.90;95.80;;;;;;5029732;28;20033;-73
2021/03/17 00:25:12;;;;;;;3.83;1.10;;;4.90;95.70;;;;;;5020310;28;20037;-72
2021/03/17 00:27:38;;;;;;;4.40;0.83;;;4.80;95.60;;;;;;5044738;28;20621;-72
2021/03/17 00:30:07;;;;;;;3.10;0.90;;;4.80;95.70;;;;;;5046633;28;20048;-71
2021/03/17 00:32:33;;;;;;;5.45;1.33;;;4.80;95.60;;;;;;5054926;28;20093;-72
2021/03/17 00:34:59;;;;;;;4.37;1.07;;;4.80;95.50;;;;;;5037947;28;20056;-72
2021/03/17 00:37:25;;;;;;;2.83;1.03;;;4.80;95.50;;;;;;5061378;28;20119;-72
2021/03/17 00:39:51;;;;;;;3.20;1.00;;;4.80;95.50;;;;;;5061206;28;20112;-72
2021/03/17 00:42:17;;;;;;;3.10;1.50;;;4.90;95.70;;;;;;5061068;28;20048;-72
2021/03/17 00:44:43;;;;;;;4.90;1.37;;;4.80;95.50;;;;;;5044277;28;20052;-73
2021/03/17 00:47:11;;;;;;;2.47;1.33;;;4.80;95.60;;;;;;5059128;28;20049;-72
2021/03/17 00:49:37;;;;;;;4.03;1.13;;;4.80;95.60;;;;;;5046315;28;20033;-72
2021/03/17 00:52:03;;;;;;;5.10;1.30;;;4.80;95.70;;;;;;5040610;28;20052;-72
2021/03/17 00:54:29;;;;;;;3.90;1.37;;;4.80;95.70;;;;;;5057770;28;20044;-72
2021/03/17 00:56:58;;;;;;;6.43;1.83;;;4.90;95.80;;;;;;5060953;28;20287;-72
2021/03/17 00:59:25;;;;;;;3.63;1.50;;;4.90;95.60;;;;;;5056450;28;20036;-72
2021/03/17 01:01:51;;;;;;;4.93;1.53;;;4.90;95.70;;;;;;5061825;28;20036;-72
2021/03/17 01:04:17;;;;;;;5.93;1.50;;;4.80;95.70;;;;;;5058713;28;20046;-72
2021/03/17 01:06:43;;;;;;;8.27;1.63;;;4.80;95.70;;;;;;5061165;28;20597;-72
2021/03/17 01:09:09;;;;;;;6.30;1.87;;;4.80;95.80;;;;;;5041856;28;20032;-72
2021/03/17 01:11:35;;;;;;;4.37;2.40;;;4.80;95.70;;;;;;5038202;28;20040;-72
2021/03/17 01:14:01;;;;;;;6.17;2.20;;;4.80;95.60;;;;;;5063209;28;20040;-72
2021/03/17 01:16:27;;;;;;;5.17;2.33;;;4.80;95.70;;;;;;5011169;28;20078;-72
2021/03/17 01:18:53;;;;;;;6.43;2.30;;;4.80;95.70;;;;;;5026582;28;20056;-72
2021/03/17 01:21:19;;;;;;;4.97;2.00;;;4.80;95.80;;;;;;5023439;28;20039;-72
2021/03/17 01:23:45;;;;;;;8.53;2.57;;;4.80;95.80;;;;;;5040120;28;20124;-72
2021/03/17 01:26:10;;;;;;;5.00;2.10;;;4.80;95.80;;;;;;5025649;28;20047;-75
2021/03/17 01:28:36;;;;;;;6.40;1.60;;;4.80;95.70;;;;;;5060610;28;20491;-74
2021/03/17 01:31:02;;;;;;;4.87;1.80;;;4.80;96.10;;;;;;5043463;28;20053;-74
2021/03/17 01:33:30;;;;;;;4.40;1.70;;;4.80;95.70;;;;;;5016725;28;791220;-75
2021/03/17 01:35:57;;;;;;;7.10;2.43;;;4.80;95.70;;;;;;5060953;28;20044;-74
2021/03/17 01:38:24;;;;;;;8.53;2.07;;;4.80;95.80;;;;;;5042196;28;20507;-75
2021/03/17 01:40:52;;;;;;;4.53;1.77;;;4.80;95.70;;;;;;5063116;28;20056;-74
2021/03/17 01:43:21;;;;;;;4.53;1.63;;;4.80;95.80;;;;;;5061671;28;20071;-75
2021/03/17 01:45:47;;;;;;;5.87;1.67;;;4.80;95.80;;;;;;5060975;28;20118;-74
2021/03/17 01:48:13;;;;;;;6.67;1.90;;;4.80;95.80;;;;;;5024404;28;20037;-75
2021/03/17 01:50:54;;;;;;;6.53;1.73;;;4.80;95.80;;;;;;5052328;28;20098;-74
2021/03/17 01:53:30;;;;;;;5.97;1.70;;;4.80;95.70;;;;;;5056762;28;20032;-75
2021/03/17 01:55:56;;;;;;;6.77;2.27;;;4.90;95.60;;;;;;5044862;28;20041;-74
2021/03/17 01:58:22;;;;;;;7.00;2.30;;;4.90;95.50;;;;;;5059449;28;20053;-73
2021/03/17 02:00:49;;;;;;;6.10;2.27;;;4.90;95.30;;;;;;5063576;28;20036;-73
2021/03/17 02:03:15;;;;;;;10.50;2.20;;;4.80;95.20;;;;;;5030285;28;20051;-72
2021/03/17 02:05:46;;;;;;;6.37;2.00;;;4.80;95.40;;;;;;5047052;28;20378;-74
2021/03/17 02:08:16;;;;;;;6.03;1.80;;;4.70;95.40;;;;;;5060620;28;20040;-75
2021/03/17 02:10:43;;;;;;;8.75;2.28;;;4.80;95.40;;;;;;5059931;28;20505;-75
2021/03/17 02:13:31;;;;;;;7.33;1.80;;;4.70;95.30;;;;;;5046585;28;20063;-75
2021/03/17 02:16:24;;;;;;;5.27;1.63;;;4.70;95.50;;;;;;5063449;28;20079;-74
2021/03/17 02:19:19;;;;;;;7.57;1.97;;;4.60;95.60;;;;;;5064581;28;20087;-75
2021/03/17 02:22:12;;;;;;;4.50;1.53;;;4.70;95.50;;;;;;5024924;28;20068;-74
2021/03/17 02:24:50;;;;;;;11.47;2.47;;;4.70;95.40;;;;;;5060734;28;20032;-74
2021/03/17 02:27:53;;;;;;;7.47;1.80;;;4.60;95.50;;;;;;5061729;28;20040;-75
2021/03/17 02:30:41;;;;;;;7.93;1.63;;;4.60;95.40;;;;;;5055649;28;20067;-74
2021/03/17 02:33:38;;;;;;;8.40;2.00;;;4.60;95.30;;;;;;5039894;28;20059;-73
2021/03/17 02:36:15;;;;;;;9.67;1.70;;;4.60;95.30;;;;;;5045291;28;20049;-75
2021/03/17 02:38:46;;;;;;;6.53;1.63;;;4.60;95.10;;;;;;5043671;28;20041;-75
2021/03/17 02:41:20;;;;;;;8.87;1.77;;;4.60;95.10;;;;;;5046178;28;20044;-74
2021/03/17 02:43:48;;;;;;;7.03;1.73;;;4.60;95.10;;;;;;5022991;28;20029;-74
2021/03/17 02:46:15;;;;;;;6.83;1.70;;;4.50;95.10;;;;;;5028395;28;20049;-74
2021/03/17 02:48:48;;;;;;;5.07;1.60;;;4.50;95.10;;;;;;5010129;28;20041;-75
2021/03/17 02:51:30;;;;;;;7.20;1.77;;;4.50;95.10;;;;;;5022389;28;20115;-73
2021/03/17 02:53:59;;;;;;;8.30;1.70;;;4.50;95.30;;;;;;5040599;28;20041;-72
2021/03/17 02:56:26;;;;;;;9.30;1.77;;;4.40;95.40;;;;;;5027747;28;20705;-72
2021/03/17 02:58:53;;;;;;;8.53;1.77;;;4.40;95.40;;;;;;5037249;28;20241;-72
2021/03/17 03:01:21;;;;;;;12.27;2.10;;;4.40;95.50;;;;;;5019771;28;20175;-72
2021/03/17 03:03:49;;;;;;;7.20;1.90;;;4.30;95.50;;;;;;5038709;28;20075;-73
2021/03/17 03:06:17;;;;;;;6.87;2.20;;;4.30;95.50;;;;;;5020084;28;20048;-72
2021/03/17 03:08:44;;;;;;;7.43;1.77;;;4.30;95.50;;;;;;5027766;28;20041;-72
2021/03/17 03:11:13;;;;;;;6.40;1.43;;;4.30;95.60;;;;;;5046841;28;20041;-73
2021/03/17 03:13:39;;;;;;;6.10;1.43;;;4.20;95.50;;;;;;5044353;28;20095;-72
2021/03/17 03:16:06;;;;;;;11.23;2.73;;;4.10;95.50;;;;;;5029573;28;20044;-72
2021/03/17 03:18:35;;;;;;;8.83;1.90;;;4.10;95.50;;;;;;5035169;28;20513;-72
2021/03/17 03:21:02;;;;;;;8.57;2.13;;;4.10;95.50;;;;;;5028639;28;20112;-72
2021/03/17 03:23:33;;;;;;;9.83;1.77;;;4.00;95.50;;;;;;5001167;28;20052;-72
2021/03/17 03:26:00;;;;;;;12.02;1.90;;;4.00;95.50;;;;;;5039345;28;20059;-73
2021/03/17 03:28:26;;;;;;;8.00;1.50;;;3.90;95.50;;;;;;5040283;28;20033;-72
2021/03/17 03:30:54;;;;;;;10.67;1.90;;;3.90;95.60;;;;;;5026538;28;20476;-72
2021/03/17 03:33:21;;;;;;;8.87;1.60;;;3.90;95.60;;;;;;5026540;28;20124;-72
2021/03/17 03:35:48;;;;;;;8.60;1.53;;;3.80;95.60;;;;;;5049329;28;20058;-72
2021/03/17 03:38:19;;;;;;;7.83;1.63;;;3.80;95.60;;;;;;5028903;28;20056;-72
2021/03/17 03:40:45;;;;;;;8.93;1.60;;;3.80;95.60;;;;;;5031362;28;20072;-72
2021/03/17 03:43:12;;;;;;;10.10;1.60;;;3.70;95.60;;;;;;5062292;28;20145;-72
2021/03/17 03:45:39;;;;;;;10.43;2.03;;;3.60;95.60;;;;;;5007543;28;20051;-72
2021/03/17 03:48:05;;;;;;;10.57;1.50;;;3.60;95.60;;;;;;5047999;28;20490;-72
2021/03/17 03:50:37;;;;;;;5.57;1.47;;;3.50;95.80;;;;;;5045264;28;20271;-72
2021/03/17 03:53:54;;;;;;;8.07;1.70;;;3.50;95.70;;;;;;5054803;28;20037;-72
2021/03/17 03:56:36;;;;;;;8.17;2.10;;;3.50;95.80;;;;;;5038127;28;20151;-73
2021/03/17 03:59:12;;;;;;;12.97;1.70;;;3.50;95.90;;;;;;5030853;28;20087;-72
2021/03/17 04:01:48;;;;;;;10.10;2.23;;;3.60;95.90;;;;;;5059608;28;20052;-72
2021/03/17 04:04:17;;;;;;;10.10;2.33;;;3.60;95.80;;;;;;5057316;28;20045;-72
2021/03/17 04:06:54;;;;;;;9.13;2.10;;;3.60;95.90;;;;;;5065429;28;20037;-72
2021/03/17 04:09:59;;;;;;;7.57;2.33;;;3.60;95.90;;;;;;5057289;28;20040;-72
2021/03/17 04:12:26;;;;;;;8.67;1.93;;;3.60;95.90;;;;;;5008511;28;20548;-73
2021/03/17 04:14:56;;;;;;;9.17;2.00;;;3.50;95.80;;;;;;5026694;28;20048;-72
2021/03/17 04:17:24;;;;;;;6.35;2.13;;;3.60;95.80;;;;;;5063689;28;20701;-72
2021/03/17 04:19:58;;;;;;;10.90;2.57;;;3.50;95.80;;;;;;5062123;28;20718;-73
2021/03/17 04:22:26;;;;;;;7.70;2.40;;;3.50;95.90;;;;;;5047931;28;20045;-72
2021/03/17 04:24:53;;;;;;;9.80;2.30;;;3.40;95.90;;;;;;5034080;28;20041;-72
2021/03/17 04:27:20;;;;;;;7.70;2.07;;;3.40;95.90;;;;;;5054237;28;20096;-72
2021/03/17 04:29:49;;;;;;;9.27;2.47;;;3.40;95.90;;;;;;5056748;28;20053;-72
2021/03/17 04:32:21;;;;;;;9.23;1.83;;;3.40;95.90;;;;;;5024284;28;20115;-72
2021/03/17 04:34:48;;;;;;;7.17;1.77;;;3.30;95.90;;;;;;5046063;28;20048;-72
2021/03/17 04:37:21;;;;;;;6.47;2.10;;;3.30;95.90;;;;;;5032065;28;20102;-72
2021/03/17 04:39:51;;;;;;;5.30;2.50;;;3.30;95.90;;;;;;5052249;28;20448;-72
2021/03/17 04:42:19;;;;;;;9.23;2.20;;;3.20;95.90;;;;;;5058704;28;20076;-72
2021/03/17 04:44:46;;;;;;;8.43;2.20;;;3.20;96.00;;;;;;5057258;28;20044;-72
2021/03/17 04:47:13;;;;;;;8.40;2.50;;;3.20;96.00;;;;;;5057914;28;20068;-72
2021/03/17 04:49:44;;;;;;;11.67;2.67;;;3.10;96.00;;;;;;5041113;28;20036;-72
2021/03/17 04:52:14;;;;;;;9.47;2.00;;;3.10;96.10;;;;;;5038259;28;20044;-72
2021/03/17 04:54:40;;;;;;;13.10;2.40;;;3.10;96.20;;;;;;5057349;28;20040;-72
2021/03/17 04:57:13;;;;;;;10.53;2.50;;;3.10;96.30;;;;;;5058764;28;20125;-72
2021/03/17 04:59:40;;;;;;;8.73;2.50;;;3.20;96.30;;;;;;5063095;28;20127;-72
2021/03/17 05:02:10;;;;;;;9.23;2.60;;;3.20;96.30;;;;;;5038033;28;20041;-73
2021/03/17 05:04:40;;;;;;;8.67;2.43;;;3.10;96.40;;;;;;5047577;28;20053;-72
2021/03/17 05:07:07;;;;;;;8.73;2.60;;;3.20;96.40;;;;;;5034577;28;20265;-72
2021/03/17 05:09:34;;;;;;;10.63;3.07;;;3.20;96.40;;;;;;5043947;28;20041;-72
2021/03/17 05:12:03;;;;;;;10.10;2.80;;;3.20;96.40;;;;;;5037977;28;20044;-72
2021/03/17 05:14:35;;;;;;;7.45;2.80;;;3.20;96.40;;;;;;5045228;28;21131;-72
2021/03/17 05:17:01;;;;;;;;;;;3.30;96.40;;;;;;5066610;28;20123;-72
2021/03/17 05:19:29;;;;;;;11.03;2.40;;;3.20;96.30;;;;;;5064192;28;19924;-72
2021/03/17 05:21:57;;;;;;;8.80;2.93;;;3.30;96.30;;;;;;5058595;28;20476;-72
2021/03/17 05:24:27;;;;;;;10.43;2.63;;;3.30;96.30;;;;;;5011766;28;20049;-72
2021/03/17 05:26:59;;;;;;;9.38;2.70;;;3.20;96.30;;;;;;5032637;28;20406;-72
2021/03/17 05:29:26;;;;;;;10.57;3.13;;;3.10;96.30;;;;;;5035073;28;20539;-72
2021/03/17 05:31:54;;;;;;;9.80;2.27;;;3.10;96.30;;;;;;5064837;28;20036;-72
2021/03/17 05:34:20;;;;;;;8.50;2.87;;;3.10;96.20;;;;;;5065739;28;20063;-73
2021/03/17 05:36:47;;;;;;;13.47;3.37;;;3.10;96.30;;;;;;5030706;28;20122;-72
2021/03/17 05:39:14;;;;;;;12.23;2.90;;;3.00;96.30;;;;;;5025405;28;20588;-72
2021/03/17 05:41:41;;;;;;;8.37;2.40;;;3.10;96.40;;;;;;5023537;28;20376;-72
2021/03/17 05:44:09;;;;;;;10.10;2.63;;;3.10;96.40;;;;;;5052025;28;20033;-73
2021/03/17 05:46:35;;;;;;;7.73;2.80;;;3.10;96.50;;;;;;5045878;28;20040;-72
2021/03/17 05:49:01;;;;;;;6.73;2.43;;;3.10;96.50;;;;;;5061523;28;20037;-72
2021/03/17 05:51:27;;;;;;;14.77;2.93;;;3.20;96.50;;;;;;5041608;28;20487;-72
2021/03/17 05:53:53;;;;;;;7.70;2.67;;;3.30;96.50;;;;;;5056669;28;20036;-72
2021/03/17 05:56:19;;;;;;;6.97;2.40;;;3.30;96.50;;;;;;5044901;28;20485;-72
2021/03/17 05:58:45;;;;;;;9.23;2.60;;;3.40;96.20;;;;;;5062402;28;20485;-71
2021/03/17 06:01:15;;;;;;;10.00;2.90;;;3.40;96.00;;;;;;5045547;28;21870;-72
2021/03/17 06:03:43;;;;;;;9.90;2.38;;;3.60;95.90;;;;;;5037935;28;20458;-72
2021/03/17 06:06:10;;;;;;;9.60;2.83;;;3.40;95.90;;;;;;5043037;28;20063;-72
2021/03/17 06:08:44;;;;;;;9.40;2.57;;;3.40;95.90;;;;;;5048348;28;20066;-72
2021/03/17 06:11:13;;;;;;;11.20;2.60;;;3.40;96.00;;;;;;5067169;28;20047;-72
2021/03/17 06:13:45;;;;;;;9.67;2.40;;;3.40;96.00;;;;;;5049341;28;20464;-72
2021/03/17 06:16:15;;;;;;;11.77;2.60;;;3.40;95.90;;;;;;5061201;28;20119;-72
2021/03/17 06:18:49;;;;;;;8.27;2.17;;;3.40;95.90;;;;;;5068913;28;20391;-72
2021/03/17 06:21:19;;;;;;;10.03;2.20;;;3.40;96.00;;;;;;5036947;28;20095;-72
2021/03/17 06:23:52;;;;;;;5.83;2.03;;;3.40;96.00;;;;;;5060981;28;20032;-72
2021/03/17 06:26:21;;;;;;;6.50;1.97;;;3.40;96.00;;;;;;5060300;28;20606;-72
2021/03/17 06:28:50;;;;;;;10.17;2.30;;;3.40;96.10;;;;;;5023782;28;20467;-72
2021/03/17 06:31:21;;;;;;;9.80;2.50;;;3.50;96.10;;;;;;5062567;28;20079;-72
2021/03/17 06:33:47;;;;;;;7.80;2.45;;;3.40;96.10;;;;;;5046462;28;20056;-74
2021/03/17 06:36:21;;;;;;;6.87;2.00;;;3.50;96.10;;;;;;5045310;28;20036;-74
2021/03/17 06:38:48;;;;;;;9.93;2.30;;;3.50;96.10;;;;;;5062141;28;20052;-74
2021/03/17 06:41:20;;;;;;;10.13;2.20;;;3.50;96.10;;;;;;5049525;28;20043;-74
2021/03/17 06:43:48;;;;;;;7.82;1.88;;;3.60;95.90;;;;;;5043654;28;20040;-75
2021/03/17 06:46:21;;;;;;;9.37;1.40;;;3.60;95.90;;;;;;5042748;28;20119;-74
2021/03/17 06:48:47;;;;;;;9.50;1.60;;;3.70;95.70;;;;;;5047406;28;20260;-74
2021/03/17 06:51:21;;;;;;;8.10;1.30;;;3.70;95.60;;;;;;5044586;28;20041;-74
2021/03/17 06:53:52;;;;;;;5.90;1.63;;;3.80;95.30;;;;;;5059937;28;20119;-74
2021/03/17 06:56:32;;;;;;;11.30;1.70;;;3.80;95.00;;;;;;5058244;28;20049;-73
2021/03/17 06:59:01;;;;;;;8.32;1.70;;;3.80;95.00;;;;;;5063153;28;20036;-74
2021/03/17 07:01:41;;;;;;;10.40;1.43;;;3.90;95.00;;;;;;5044920;28;20044;-74
2021/03/17 07:04:17;;;;;;;10.00;1.60;;;3.80;94.80;;;;;;5061446;28;20340;-74
2021/03/17 07:06:50;;;;;;;8.10;1.90;;;3.90;94.70;;;;;;5064635;28;20033;-75
2021/03/17 07:09:25;;;;;;;13.60;1.73;;;3.90;94.70;;;;;;5059416;28;20678;-75
2021/03/17 07:12:04;;;;;;;8.30;2.13;;;3.90;94.70;;;;;;5062745;28;20506;-74
2021/03/17 07:14:37;;;;;;;10.60;1.77;;;3.90;94.80;;;;;;5041908;28;20419;-75
2021/03/17 07:17:03;;;;;;;11.27;1.80;;;3.90;94.70;;;;;;5064963;28;20044;-75
2021/03/17 07:19:35;;;;;;;12.10;1.90;;;4.00;94.70;;;;;;5043853;28;20060;-74
2021/03/17 07:22:09;;;;;;;11.57;1.93;;;4.00;94.50;;;;;;5061955;28;20036;-75
2021/03/17 07:24:41;;;;;;;14.17;2.67;;;4.10;94.00;;;;;;5058751;28;20105;-75
2021/03/17 07:27:19;;;;;;;11.03;1.70;;;4.10;93.90;;;;;;5036671;28;20929;-74
2021/03/17 07:30:06;;;;;;;9.50;1.57;;;4.20;93.40;;;;;;5063258;28;20036;-76
2021/03/17 07:32:59;;;;;;;13.03;1.90;;;4.10;93.70;;;;;;5039104;28;20756;-74
2021/03/17 07:35:25;;;;;;;10.00;1.70;;;4.30;93.40;;;;;;5038485;28;20056;-74
2021/03/17 07:38:21;;;;;;;9.00;1.67;;;4.30;93.10;;;;;;5035920;28;20037;-75
2021/03/17 07:40:47;;;;;;;9.17;1.50;;;4.40;93.00;;;;;;5042681;28;20061;-75
2021/03/17 07:43:15;;;;;;;9.27;1.87;;;4.40;93.20;;;;;;5020851;28;20076;-75
2021/03/17 07:45:42;;;;;;;16.30;2.33;;;4.50;93.30;;;;;;5040131;28;20053;-75
2021/03/17 07:48:10;;;;;;;8.63;1.60;;;4.60;93.60;;;;;;5035870;28;20537;-75
2021/03/17 07:50:38;;;;;;;11.90;1.70;;;4.80;93.30;;;;;;5019548;28;20123;-75
2021/03/17 07:53:15;;;;;;;10.03;2.40;;;5.00;93.00;;;;;;5032477;28;20060;-75
2021/03/17 07:55:45;;;;;;;9.97;1.60;;;5.00;91.80;;;;;;5036946;28;20055;-76
2021/03/17 07:58:17;;;;;;;12.13;2.00;;;5.30;91.40;;;;;;5050643;28;20468;-75
2021/03/17 08:00:46;;;;;;;9.27;1.33;;;5.30;91.20;;;;;;5058141;28;20491;-75
2021/03/17 08:03:13;;;;;;;15.83;2.43;;;5.40;90.80;;;;;;5056962;28;20041;-75
2021/03/17 08:05:43;;;;;;;9.37;1.70;;;5.50;90.10;;;;;;5023403;28;20068;-75
2021/03/17 08:08:10;;;;;;;11.90;1.63;;;5.60;90.40;;;;;;5023550;28;20076;-75
2021/03/17 08:10:42;;;;;;;13.30;2.47;;;5.70;89.80;;;;;;5036140;28;20045;-76
2021/03/17 08:13:09;;;;;;;11.43;1.90;;;5.90;83.80;;;;;;5005909;28;20411;-76
2021/03/17 08:15:36;;;;;;;14.20;1.70;;;6.00;84.50;;;;;;5020625;28;20029;-75
2021/03/17 08:18:02;;;;;;;11.80;2.30;;;6.20;83.20;;;;;;5040020;28;20071;-76
2021/03/17 08:20:29;;;;;;;7.90;1.90;;;6.30;85.60;;;;;;5022772;28;20049;-76
2021/03/17 08:22:57;;;;;;;10.33;1.50;;;6.50;83.40;;;;;;5039362;28;20040;-75
2021/03/17 08:25:37;;;;;;;18.63;1.90;;;6.60;81.90;;;;;;5039280;28;20111;-75
2021/03/17 08:28:27;;;;;;;8.85;1.85;;;6.70;82.10;;;;;;5058474;28;20273;-75
2021/03/17 08:30:55;;;;;;;;;;;6.90;80.60;;;;;;5037905;28;20095;-75
2021/03/17 08:33:41;;;;;;;14.60;2.13;;;7.10;76.00;;;;;;5024516;28;19928;-76
2021/03/17 08:36:08;;;;;;;10.73;1.40;;;7.10;75.80;;;;;;5039913;28;20071;-76
2021/03/17 08:38:49;;;;;;;7.23;1.30;;;7.00;73.40;;;;;;5056271;28;20029;-76
2021/03/17 08:41:17;;;;;;;12.87;2.57;;;6.80;76.00;;;;;;5039543;28;20037;-74
2021/03/17 08:43:47;;;;;;;5.87;1.20;;;6.70;75.90;;;;;;5025028;28;20037;-74
2021/03/17 08:46:21;;;;;;;12.40;1.50;;;6.70;76.80;;;;;;5039760;28;20060;-74
2021/03/17 08:48:55;;;;;;;9.03;1.43;;;6.60;76.20;;;;;;5041257;28;20131;-76
2021/03/17 08:51:46;;;;;;;8.07;1.20;;;6.50;77.70;;;;;;5021085;28;20038;-76
2021/03/17 08:54:33;;;;;;;10.47;1.47;;;6.50;76.90;;;;;;5039913;28;20044;-75
2021/03/17 08:57:05;;;;;;;8.13;1.07;;;6.50;74.60;;;;;;5042510;28;20043;-76
2021/03/17 08:59:49;;;;;;;10.23;1.40;;;6.40;75.40;;;;;;5041059;28;20068;-75
2021/03/17 09:02:42;;;;;;;13.23;1.73;;;6.40;73.20;;;;;;5039680;28;20036;-75
2021/03/17 09:05:37;;;;;;;9.97;1.60;;;6.20;76.50;;;;;;5021699;28;20047;-75
2021/03/17 09:08:10;;;;;;;10.23;1.73;;;6.30;75.00;;;;;;4993561;28;20507;-76
2021/03/17 09:10:48;;;;;;;9.63;1.50;;;6.30;76.00;;;;;;5040411;28;20037;-75
2021/03/17 09:13:35;;;;;;;11.33;2.33;;;6.30;77.80;;;;;;5044610;28;20048;-75
2021/03/17 09:16:03;;;;;;;10.37;1.50;;;6.40;78.10;;;;;;5044373;28;20062;-74
2021/03/17 09:18:29;;;;;;;13.83;1.60;;;6.50;78.40;;;;;;5042334;28;20037;-76
2021/03/17 09:20:56;;;;;;;6.07;1.37;;;6.50;78.30;;;;;;5038951;28;21055;-76
2021/03/17 09:23:25;;;;;;;7.13;1.23;;;6.50;76.90;;;;;;5040157;28;20071;-76
2021/03/17 09:25:53;;;;;;;12.37;2.73;;;6.60;79.00;;;;;;5026801;28;20410;-76
2021/03/17 09:28:35;;;;;;;11.23;1.70;;;6.70;79.70;;;;;;5025892;28;20060;-76
2021/03/17 09:31:07;;;;;;;8.43;1.77;;;6.90;78.50;;;;;;5018623;28;20579;-76
2021/03/17 09:33:39;;;;;;;11.63;1.60;;;7.30;75.80;;;;;;5040814;28;20037;-76
2021/03/17 09:36:14;;;;;;;13.47;1.83;;;7.30;75.50;;;;;;5046527;28;20053;-76
2021/03/17 09:38:42;;;;;;;10.27;1.60;;;7.30;75.10;;;;;;5046518;28;20033;-77
2021/03/17 09:41:09;;;;;;;10.50;1.47;;;7.20;72.20;;;;;;5042716;28;20952;-76
2021/03/17 09:43:35;;;;;;;10.43;1.63;;;7.10;73.80;;;;;;5027053;28;20514;-76
2021/03/17 09:46:20;;;;;;;6.67;1.20;;;7.00;73.20;;;;;;5048522;28;20045;-75
2021/03/17 09:48:47;;;;;;;8.90;1.80;;;7.00;73.20;;;;;;5048567;28;20044;-76
2021/03/17 09:51:18;;;;;;;7.68;1.48;;;6.80;74.80;;;;;;5033872;28;20059;-76
2021/03/17 09:53:46;;;;;;;7.53;1.10;;;6.90;71.20;;;;;;5044774;28;20060;-76
2021/03/17 09:56:12;;;;;;;13.53;1.87;;;7.00;71.90;;;;;;5053448;28;20043;-76
2021/03/17 09:58:42;;;;;;;7.87;1.30;;;7.00;74.20;;;;;;5047848;28;20080;-75
2021/03/17 10:01:12;;;;;;;8.67;1.33;;;7.20;74.90;;;;;;5037421;28;20048;-73
2021/03/17 10:03:45;;;;;;;;;;;7.20;73.40;;;;;;5027904;28;20615;-75
2021/03/17 10:06:11;;;;;;;6.10;1.13;;;7.10;73.40;;;;;;5003636;28;19971;-76
2021/03/17 10:08:37;;;;;;;7.30;1.57;;;7.10;73.90;;;;;;5026198;28;20321;-76
2021/03/17 10:11:03;;;;;;;7.60;1.20;;;7.20;72.40;;;;;;5028522;28;20132;-75
2021/03/17 10:13:39;;;;;;;7.93;1.13;;;7.10;73.70;;;;;;5030907;28;20037;-75
2021/03/17 10:16:05;;;;;;;9.07;1.70;;;7.20;72.20;;;;;;5025707;28;20045;-75
2021/03/17 10:18:31;;;;;;;7.60;1.37;;;7.20;70.30;;;;;;5048188;28;20040;-75
2021/03/17 10:20:57;;;;;;;6.07;1.20;;;7.10;71.50;;;;;;5022954;28;20415;-75
2021/03/17 10:23:23;;;;;;;8.53;1.90;;;7.10;71.60;;;;;;5044566;28;20120;-76
2021/03/17 10:25:50;;;;;;;5.13;1.00;;;7.20;69.60;;;;;;5028212;28;20373;-76
2021/03/17 10:28:17;;;;;;;7.77;1.00;;;7.20;70.00;;;;;;5026908;28;20064;-76
2021/03/17 10:30:47;;;;;;;6.17;0.97;;;7.30;66.60;;;;;;5047305;28;20041;-76
2021/03/17 10:33:15;;;;;;;12.23;1.25;;;7.30;65.90;;;;;;5027723;28;20123;-75
2021/03/17 10:35:42;;;;;;;5.47;1.20;;;7.40;65.40;;;;;;5041570;28;20242;-76
2021/03/17 10:38:09;;;;;;;2.93;0.77;;;7.50;65.60;;;;;;5043244;28;20522;-77
2021/03/17 10:40:39;;;;;;;10.63;1.57;;;7.60;66.90;;;;;;5025877;28;20037;-75
2021/03/17 10:43:09;;;;;;;8.25;0.85;;;7.60;68.40;;;;;;5036351;28;20068;-76
2021/03/17 10:45:53;;;;;;;8.68;1.23;;;7.70;68.80;;;;;;5046586;28;20507;-75
2021/03/17 10:48:24;;;;;;;8.70;1.10;;;7.70;68.30;;;;;;5040314;28;20041;-76
2021/03/17 10:50:51;;;;;;;6.40;1.13;;;7.70;68.60;;;;;;5045601;28;20032;-75
2021/03/17 10:53:20;;;;;;;8.87;0.70;;;7.90;68.50;;;;;;5041158;28;20064;-76
2021/03/17 10:55:50;;;;;;;7.30;1.20;;;8.00;65.80;;;;;;5040459;28;20049;-75
2021/03/17 10:58:27;;;;;;;11.80;1.27;;;8.00;65.80;;;;;;5058841;28;20079;-76
2021/03/17 11:00:59;;;;;;;12.67;1.23;;;7.80;65.40;;;;;;5044156;28;20049;-76
2021/03/17 11:03:38;;;;;;;9.90;1.80;;;7.80;65.90;;;;;;5038612;28;20040;-76
2021/03/17 11:06:23;;;;;;;6.40;1.23;;;7.70;67.60;;;;;;5042658;28;20045;-75
2021/03/17 11:09:03;;;;;;;6.87;1.20;;;7.70;66.10;;;;;;5039398;28;20068;-75
2021/03/17 11:11:30;;;;;;;9.20;1.13;;;7.50;67.20;;;;;;5038927;28;20624;-76
2021/03/17 11:13:56;;;;;;;6.60;1.30;;;7.50;67.40;;;;;;5043348;28;20029;-75
2021/03/17 11:16:32;;;;;;;7.20;1.43;;;7.60;63.70;;;;;;5032649;28;20045;-76
2021/03/17 11:19:03;;;;;;;9.43;1.40;;;7.60;63.90;;;;;;5043553;28;20111;-76
2021/03/17 11:21:39;;;;;;;5.75;0.95;;;7.60;64.20;;;;;;5043383;28;20071;-75
2021/03/17 11:24:19;;;;;;;7.47;1.57;;;7.60;63.50;;;;;;5040903;28;20487;-76
2021/03/17 11:26:48;;;;;;;9.17;1.40;;;7.60;64.70;;;;;;5035004;28;20040;-75
2021/03/17 11:29:27;;;;;;;7.53;1.40;;;7.70;65.10;;;;;;5040167;28;20403;-76
2021/03/17 11:31:55;;;;;;;8.07;0.90;;;7.80;65.10;;;;;;5038823;28;20369;-75
2021/03/17 11:34:22;;;;;;;15.07;1.23;;;7.90;62.20;;;;;;5047760;28;20080;-76
2021/03/17 11:36:49;;;;;;;7.27;1.00;;;7.90;63.50;;;;;;4989311;28;20037;-76
2021/03/17 11:39:17;;;;;;;5.10;1.00;;;7.90;62.80;;;;;;4978066;28;20056;-76
2021/03/17 11:41:45;;;;;;;8.90;1.53;;;7.90;64.20;;;;;;5022370;28;20399;-76
2021/03/17 11:44:21;;;;;;;6.93;0.70;;;7.90;61.70;;;;;;5040301;28;20396;-76
2021/03/17 11:46:47;;;;;;;5.77;0.63;;;7.90;61.60;;;;;;5042831;28;20043;-75
2021/03/17 11:49:15;;;;;;;4.63;0.80;;;8.00;60.20;;;;;;5023915;28;20037;-76
2021/03/17 11:51:41;;;;;;;6.47;1.20;;;7.90;60.10;;;;;;5039714;28;20045;-75
2021/03/17 11:54:08;;;;;;;6.47;0.87;;;7.90;61.80;;;;;;5042042;28;20071;-76
2021/03/17 11:56:34;;;;;;;5.17;1.20;;;8.00;60.80;;;;;;5044647;28;20182;-76
2021/03/17 11:59:00;;;;;;;6.03;0.90;;;8.10;59.30;;;;;;5025580;28;20056;-77
2021/03/17 12:01:26;;;;;;;5.73;0.97;;;8.20;59.70;;;;;;5045451;28;20065;-76
2021/03/17 12:03:52;;;;;;;4.27;0.90;;;8.10;61.70;;;;;;5038733;28;20110;-76
2021/03/17 12:06:17;;;;;;;7.03;1.03;;;8.20;63.00;;;;;;5031483;28;20048;-76
2021/03/17 12:08:47;;;;;;;7.33;1.13;;;8.30;61.30;;;;;;5013519;28;20068;-76
2021/03/17 12:11:13;;;;;;;7.70;1.10;;;8.40;60.30;;;;;;5039247;28;20041;-76
2021/03/17 12:13:39;;;;;;;10.43;1.27;;;8.60;58.80;;;;;;5028009;28;20041;-76
2021/03/17 12:16:05;;;;;;;6.37;0.80;;;8.50;61.00;;;;;;5042732;28;20080;-76
2021/03/17 12:18:31;;;;;;;4.57;1.10;;;8.50;62.60;;;;;;5041833;28;20421;-76
2021/03/17 12:20:57;;;;;;;6.50;0.90;;;8.50;63.00;;;;;;5021981;28;20047;-76
2021/03/17 12:23:23;;;;;;;6.33;1.00;;;8.60;61.00;;;;;;5045711;28;20047;-75
2021/03/17 12:25:49;;;;;;;5.87;1.00;;;8.50;61.60;;;;;;5012473;28;20044;-75
2021/03/17 12:28:15;;;;;;;11.50;1.30;;;8.40;61.90;;;;;;5040321;28;20089;-74
2021/03/17 12:30:42;;;;;;;6.30;0.90;;;8.40;60.80;;;;;;5027740;28;20139;-74
2021/03/17 12:33:09;;;;;;;4.30;0.87;;;8.20;60.70;;;;;;5040299;28;20517;-75
2021/03/17 12:35:35;;;;;;;6.10;0.87;;;8.10;62.00;;;;;;5024934;28;20107;-78
2021/03/17 12:38:02;;;;;;;6.93;1.00;;;8.10;62.60;;;;;;5032606;28;20052;-81
2021/03/17 12:40:29;;;;;;;6.50;1.53;;;8.00;62.80;;;;;;5033917;28;20045;-79
2021/03/17 12:42:56;;;;;;;6.33;0.90;;;8.20;61.50;;;;;;5033243;28;20044;-80
2021/03/17 12:45:25;;;;;;;6.70;1.00;;;8.30;62.50;;;;;;5038790;28;20056;-80
2021/03/17 12:47:52;;;;;;;5.70;0.73;;;8.50;60.40;;;;;;5035891;28;20033;-79
2021/03/17 12:50:20;;;;;;;4.47;0.90;;;8.50;60.90;;;;;;5035909;28;20443;-75
2021/03/17 12:52:47;;;;;;;5.27;0.90;;;8.50;59.50;;;;;;5034128;28;20076;-76
2021/03/17 12:55:13;;;;;;;7.33;1.03;;;8.50;60.80;;;;;;5036308;28;20049;-76
2021/03/17 12:57:39;;;;;;;5.00;0.90;;;8.60;61.60;;;;;;5015683;28;20215;-76
2021/03/17 13:00:16;;;;;;;4.77;0.90;;;8.80;59.90;;;;;;5041298;28;20052;-76
2021/03/17 13:02:44;;;;;;;5.17;0.70;;;9.00;59.30;;;;;;5042038;28;20135;-76
2021/03/17 13:05:11;;;;;;;6.53;0.80;;;9.10;59.80;;;;;;5041992;28;20071;-76
2021/03/17 13:07:37;;;;;;;6.33;0.90;;;9.30;57.70;;;;;;5040008;28;20068;-76
2021/03/17 13:10:09;;;;;;;5.13;0.80;;;9.30;57.10;;;;;;5037005;28;20044;-76
2021/03/17 13:12:35;;;;;;;5.20;0.80;;;9.20;57.70;;;;;;5035605;28;20173;-76